sensor_id;sensor_type;location;lat;lon;timestamp;P1;durP1;ratioP1;P2;durP2;ratioP2
72791;SDS011;60907;53.268;8.764;2023-07-29T00:00:25;12.77;;;6.70;;
72791;SDS011;60907;53.268;8.764;2023-07-29T00:02:53;12.05;;;7.43;;
72791;SDS011;60907;53.268;8.764;2023-07-29T00:05:18;14.23;;;7.60;;
72791;SDS011;60907;53.268;8.764;2023-07-29T00:07:43;11.85;;;6.80;;
72791;SDS011;60907;53.268;8.764;2023-07-29T00:10:09;13.32;;;6.55;;
72791;SDS011;60907;53.268;8.764;2023-07-29T00:12:34;11.50;;;7.07;;
72791;SDS011;60907;53.268;8.764;2023-07-29T00:15:00;10.90;;;6.93;;
72791;SDS011;60907;53.268;8.764;2023-07-29T00:17:25;12.52;;;6.60;;
72791;SDS011;60907;53.268;8.764;2023-07-29T00:19:51;12.68;;;6.22;;
72791;SDS011;60907;53.268;8.764;2023-07-29T00:22:16;12.65;;;7.75;;
72791;SDS011;60907;53.268;8.764;2023-07-29T00:24:42;10.85;;;6.35;;
72791;SDS011;60907;53.268;8.764;2023-07-29T00:27:07;14.07;;;7.85;;
72791;SDS011;60907;53.268;8.764;2023-07-29T00:29:32;11.73;;;7.25;;
72791;SDS011;60907;53.268;8.764;2023-07-29T00:31:58;13.23;;;7.40;;
72791;SDS011;60907;53.268;8.764;2023-07-29T00:34:23;12.27;;;7.40;;
72791;SDS011;60907;53.268;8.764;2023-07-29T00:36:48;12.27;;;6.67;;
72791;SDS011;60907;53.268;8.764;2023-07-29T00:39:14;14.60;;;7.00;;
72791;SDS011;60907;53.268;8.764;2023-07-29T00:41:39;11.77;;;6.77;;
72791;SDS011;60907;53.268;8.764;2023-07-29T00:44:05;11.90;;;6.80;;
72791;SDS011;60907;53.268;8.764;2023-07-29T00:46:30;11.65;;;6.78;;
72791;SDS011;60907;53.268;8.764;2023-07-29T00:48:58;12.07;;;6.85;;
72791;SDS011;60907;53.268;8.764;2023-07-29T00:51:23;17.52;;;7.38;;
72791;SDS011;60907;53.268;8.764;2023-07-29T00:53:49;12.40;;;6.20;;
72791;SDS011;60907;53.268;8.764;2023-07-29T00:56:14;12.30;;;7.17;;
72791;SDS011;60907;53.268;8.764;2023-07-29T00:58:39;10.50;;;6.17;;
72791;SDS011;60907;53.268;8.764;2023-07-29T01:01:05;11.53;;;6.73;;
72791;SDS011;60907;53.268;8.764;2023-07-29T01:03:30;13.37;;;7.07;;
72791;SDS011;60907;53.268;8.764;2023-07-29T01:06:01;59.55;;;11.85;;
72791;SDS011;60907;53.268;8.764;2023-07-29T01:08:46;15.10;;;8.25;;
72791;SDS011;60907;53.268;8.764;2023-07-29T01:11:22;18.13;;;10.63;;
72791;SDS011;60907;53.268;8.764;2023-07-29T01:14:21;34.35;;;16.73;;
72791;SDS011;60907;53.268;8.764;2023-07-29T01:17:03;35.05;;;17.10;;
72791;SDS011;60907;53.268;8.764;2023-07-29T01:19:37;40.72;;;18.15;;
72791;SDS011;60907;53.268;8.764;2023-07-29T01:22:06;36.30;;;17.02;;
72791;SDS011;60907;53.268;8.764;2023-07-29T01:24:32;42.15;;;17.60;;
72791;SDS011;60907;53.268;8.764;2023-07-29T01:26:58;42.15;;;17.90;;
72791;SDS011;60907;53.268;8.764;2023-07-29T01:29:23;43.92;;;17.90;;
72791;SDS011;60907;53.268;8.764;2023-07-29T01:31:48;36.42;;;16.63;;
72791;SDS011;60907;53.268;8.764;2023-07-29T01:37:25;37.53;;;17.60;;
72791;SDS011;60907;53.268;8.764;2023-07-29T01:39:52;41.15;;;18.45;;
72791;SDS011;60907;53.268;8.764;2023-07-29T01:42:22;35.08;;;16.83;;
72791;SDS011;60907;53.268;8.764;2023-07-29T01:44:48;36.08;;;18.10;;
72791;SDS011;60907;53.268;8.764;2023-07-29T01:47:13;33.65;;;17.73;;
72791;SDS011;60907;53.268;8.764;2023-07-29T01:49:39;36.72;;;17.95;;
72791;SDS011;60907;53.268;8.764;2023-07-29T01:52:04;32.33;;;15.95;;
72791;SDS011;60907;53.268;8.764;2023-07-29T01:54:30;38.28;;;17.00;;
72791;SDS011;60907;53.268;8.764;2023-07-29T01:56:55;34.20;;;17.37;;
72791;SDS011;60907;53.268;8.764;2023-07-29T01:59:20;39.97;;;18.20;;
72791;SDS011;60907;53.268;8.764;2023-07-29T02:01:46;34.47;;;17.00;;
72791;SDS011;60907;53.268;8.764;2023-07-29T02:04:11;35.50;;;17.67;;
72791;SDS011;60907;53.268;8.764;2023-07-29T02:06:37;32.97;;;17.55;;
72791;SDS011;60907;53.268;8.764;2023-07-29T02:09:02;39.15;;;17.38;;
72791;SDS011;60907;53.268;8.764;2023-07-29T02:13:54;34.13;;;16.02;;
72791;SDS011;60907;53.268;8.764;2023-07-29T02:16:20;32.63;;;15.93;;
72791;SDS011;60907;53.268;8.764;2023-07-29T02:18:47;34.40;;;15.55;;
72791;SDS011;60907;53.268;8.764;2023-07-29T02:21:12;33.10;;;16.85;;
72791;SDS011;60907;53.268;8.764;2023-07-29T02:23:38;32.37;;;17.27;;
72791;SDS011;60907;53.268;8.764;2023-07-29T02:26:03;33.50;;;16.67;;
72791;SDS011;60907;53.268;8.764;2023-07-29T02:28:29;31.83;;;16.55;;
72791;SDS011;60907;53.268;8.764;2023-07-29T02:31:13;30.30;;;16.10;;
72791;SDS011;60907;53.268;8.764;2023-07-29T02:33:43;31.35;;;16.10;;
72791;SDS011;60907;53.268;8.764;2023-07-29T02:36:09;30.20;;;15.30;;
72791;SDS011;60907;53.268;8.764;2023-07-29T02:38:34;30.08;;;14.38;;
72791;SDS011;60907;53.268;8.764;2023-07-29T02:41:00;33.20;;;15.88;;
72791;SDS011;60907;53.268;8.764;2023-07-29T02:43:25;29.20;;;15.10;;
72791;SDS011;60907;53.268;8.764;2023-07-29T02:45:50;32.33;;;16.10;;
72791;SDS011;60907;53.268;8.764;2023-07-29T02:48:16;38.30;;;15.40;;
72791;SDS011;60907;53.268;8.764;2023-07-29T02:50:41;44.37;;;15.93;;
72791;SDS011;60907;53.268;8.764;2023-07-29T02:53:06;41.90;;;16.10;;
72791;SDS011;60907;53.268;8.764;2023-07-29T02:55:32;36.80;;;15.73;;
72791;SDS011;60907;53.268;8.764;2023-07-29T02:57:57;42.45;;;15.95;;
72791;SDS011;60907;53.268;8.764;2023-07-29T03:00:23;35.17;;;15.47;;
72791;SDS011;60907;53.268;8.764;2023-07-29T03:02:49;52.53;;;16.13;;
72791;SDS011;60907;53.268;8.764;2023-07-29T03:05:15;31.40;;;14.15;;
72791;SDS011;60907;53.268;8.764;2023-07-29T03:07:40;40.20;;;14.93;;
72791;SDS011;60907;53.268;8.764;2023-07-29T03:10:06;35.17;;;15.10;;
72791;SDS011;60907;53.268;8.764;2023-07-29T03:12:31;36.15;;;15.45;;
72791;SDS011;60907;53.268;8.764;2023-07-29T03:14:57;36.63;;;14.73;;
72791;SDS011;60907;53.268;8.764;2023-07-29T03:17:22;40.73;;;15.70;;
72791;SDS011;60907;53.268;8.764;2023-07-29T03:19:47;30.77;;;13.23;;
72791;SDS011;60907;53.268;8.764;2023-07-29T03:22:13;33.43;;;14.67;;
72791;SDS011;60907;53.268;8.764;2023-07-29T03:24:38;35.07;;;15.43;;
72791;SDS011;60907;53.268;8.764;2023-07-29T03:27:04;32.88;;;15.75;;
72791;SDS011;60907;53.268;8.764;2023-07-29T03:29:30;26.83;;;14.55;;
72791;SDS011;60907;53.268;8.764;2023-07-29T03:31:55;30.65;;;15.48;;
72791;SDS011;60907;53.268;8.764;2023-07-29T03:34:21;30.10;;;14.97;;
72791;SDS011;60907;53.268;8.764;2023-07-29T03:36:46;31.33;;;15.13;;
72791;SDS011;60907;53.268;8.764;2023-07-29T03:39:13;31.15;;;15.77;;
72791;SDS011;60907;53.268;8.764;2023-07-29T03:41:39;29.15;;;15.10;;
72791;SDS011;60907;53.268;8.764;2023-07-29T03:44:04;32.80;;;16.20;;
72791;SDS011;60907;53.268;8.764;2023-07-29T03:46:30;32.60;;;15.73;;
72791;SDS011;60907;53.268;8.764;2023-07-29T03:48:56;28.73;;;14.77;;
72791;SDS011;60907;53.268;8.764;2023-07-29T03:51:22;34.35;;;15.35;;
72791;SDS011;60907;53.268;8.764;2023-07-29T03:53:47;30.60;;;17.15;;
72791;SDS011;60907;53.268;8.764;2023-07-29T03:56:13;33.22;;;17.27;;
72791;SDS011;60907;53.268;8.764;2023-07-29T03:58:38;32.30;;;16.80;;
72791;SDS011;60907;53.268;8.764;2023-07-29T04:01:04;35.83;;;18.60;;
72791;SDS011;60907;53.268;8.764;2023-07-29T04:03:29;36.45;;;17.67;;
72791;SDS011;60907;53.268;8.764;2023-07-29T04:05:55;35.72;;;18.13;;
72791;SDS011;60907;53.268;8.764;2023-07-29T04:08:20;37.85;;;18.67;;
72791;SDS011;60907;53.268;8.764;2023-07-29T04:10:46;36.85;;;18.63;;
72791;SDS011;60907;53.268;8.764;2023-07-29T04:13:11;33.55;;;17.48;;
72791;SDS011;60907;53.268;8.764;2023-07-29T04:15:36;34.17;;;16.67;;
72791;SDS011;60907;53.268;8.764;2023-07-29T04:18:02;30.37;;;16.70;;
72791;SDS011;60907;53.268;8.764;2023-07-29T04:20:27;28.65;;;15.88;;
72791;SDS011;60907;53.268;8.764;2023-07-29T04:22:54;29.42;;;15.45;;
72791;SDS011;60907;53.268;8.764;2023-07-29T04:25:19;31.40;;;15.70;;
72791;SDS011;60907;53.268;8.764;2023-07-29T04:27:45;28.58;;;15.23;;
72791;SDS011;60907;53.268;8.764;2023-07-29T04:30:10;28.77;;;15.90;;
72791;SDS011;60907;53.268;8.764;2023-07-29T04:32:36;30.60;;;15.13;;
72791;SDS011;60907;53.268;8.764;2023-07-29T04:35:01;28.37;;;15.20;;
72791;SDS011;60907;53.268;8.764;2023-07-29T04:37:27;30.73;;;15.75;;
72791;SDS011;60907;53.268;8.764;2023-07-29T04:39:52;30.37;;;15.97;;
72791;SDS011;60907;53.268;8.764;2023-07-29T04:42:17;33.70;;;16.67;;
72791;SDS011;60907;53.268;8.764;2023-07-29T04:44:43;36.47;;;16.83;;
72791;SDS011;60907;53.268;8.764;2023-07-29T04:47:08;33.72;;;16.80;;
72791;SDS011;60907;53.268;8.764;2023-07-29T04:49:34;35.22;;;16.35;;
72791;SDS011;60907;53.268;8.764;2023-07-29T04:51:59;35.60;;;18.37;;
72791;SDS011;60907;53.268;8.764;2023-07-29T04:54:24;33.75;;;16.52;;
72791;SDS011;60907;53.268;8.764;2023-07-29T04:56:50;40.72;;;18.88;;
72791;SDS011;60907;53.268;8.764;2023-07-29T04:59:16;40.60;;;18.38;;
72791;SDS011;60907;53.268;8.764;2023-07-29T05:01:42;37.60;;;18.80;;
72791;SDS011;60907;53.268;8.764;2023-07-29T05:04:08;38.28;;;19.33;;
72791;SDS011;60907;53.268;8.764;2023-07-29T05:06:33;38.20;;;19.13;;
72791;SDS011;60907;53.268;8.764;2023-07-29T05:08:59;38.57;;;17.70;;
72791;SDS011;60907;53.268;8.764;2023-07-29T05:11:24;35.88;;;18.73;;
72791;SDS011;60907;53.268;8.764;2023-07-29T05:13:50;32.42;;;17.60;;
72791;SDS011;60907;53.268;8.764;2023-07-29T05:16:16;38.97;;;17.80;;
72791;SDS011;60907;53.268;8.764;2023-07-29T05:18:41;33.97;;;16.80;;
72791;SDS011;60907;53.268;8.764;2023-07-29T05:21:06;37.47;;;17.00;;
72791;SDS011;60907;53.268;8.764;2023-07-29T05:23:33;34.47;;;16.88;;
72791;SDS011;60907;53.268;8.764;2023-07-29T05:25:58;32.67;;;16.73;;
72791;SDS011;60907;53.268;8.764;2023-07-29T05:28:24;34.40;;;17.67;;
72791;SDS011;60907;53.268;8.764;2023-07-29T05:30:49;34.87;;;17.53;;
72791;SDS011;60907;53.268;8.764;2023-07-29T05:33:15;33.70;;;16.60;;
72791;SDS011;60907;53.268;8.764;2023-07-29T05:35:40;31.48;;;16.45;;
72791;SDS011;60907;53.268;8.764;2023-07-29T05:38:05;37.00;;;17.08;;
72791;SDS011;60907;53.268;8.764;2023-07-29T05:40:33;33.75;;;16.30;;
72791;SDS011;60907;53.268;8.764;2023-07-29T05:42:58;31.38;;;16.20;;
72791;SDS011;60907;53.268;8.764;2023-07-29T05:45:24;31.73;;;15.43;;
72791;SDS011;60907;53.268;8.764;2023-07-29T05:47:49;32.92;;;15.52;;
72791;SDS011;60907;53.268;8.764;2023-07-29T05:50:14;30.83;;;15.13;;
72791;SDS011;60907;53.268;8.764;2023-07-29T05:52:41;31.50;;;15.95;;
72791;SDS011;60907;53.268;8.764;2023-07-29T05:55:06;26.17;;;14.98;;
72791;SDS011;60907;53.268;8.764;2023-07-29T05:57:32;30.90;;;14.77;;
72791;SDS011;60907;53.268;8.764;2023-07-29T05:59:57;29.10;;;14.83;;
72791;SDS011;60907;53.268;8.764;2023-07-29T06:02:23;29.02;;;14.48;;
72791;SDS011;60907;53.268;8.764;2023-07-29T06:04:48;33.75;;;14.45;;
72791;SDS011;60907;53.268;8.764;2023-07-29T06:07:14;27.52;;;13.63;;
72791;SDS011;60907;53.268;8.764;2023-07-29T06:09:39;30.80;;;15.57;;
72791;SDS011;60907;53.268;8.764;2023-07-29T06:12:05;30.90;;;15.43;;
72791;SDS011;60907;53.268;8.764;2023-07-29T06:14:31;29.02;;;15.27;;
72791;SDS011;60907;53.268;8.764;2023-07-29T06:16:56;32.37;;;14.43;;
72791;SDS011;60907;53.268;8.764;2023-07-29T06:19:21;27.07;;;14.97;;
72791;SDS011;60907;53.268;8.764;2023-07-29T06:21:48;28.83;;;15.00;;
72791;SDS011;60907;53.268;8.764;2023-07-29T06:24:13;31.13;;;14.40;;
72791;SDS011;60907;53.268;8.764;2023-07-29T06:26:38;31.25;;;14.32;;
72791;SDS011;60907;53.268;8.764;2023-07-29T06:29:04;28.35;;;15.90;;
72791;SDS011;60907;53.268;8.764;2023-07-29T06:31:29;31.48;;;15.45;;
72791;SDS011;60907;53.268;8.764;2023-07-29T06:33:55;33.50;;;16.27;;
72791;SDS011;60907;53.268;8.764;2023-07-29T06:36:20;30.98;;;15.25;;
72791;SDS011;60907;53.268;8.764;2023-07-29T06:38:46;28.40;;;14.45;;
72791;SDS011;60907;53.268;8.764;2023-07-29T06:41:11;32.90;;;15.35;;
72791;SDS011;60907;53.268;8.764;2023-07-29T06:43:37;28.02;;;14.38;;
72791;SDS011;60907;53.268;8.764;2023-07-29T06:46:02;30.07;;;15.17;;
72791;SDS011;60907;53.268;8.764;2023-07-29T06:48:28;24.45;;;13.13;;
72791;SDS011;60907;53.268;8.764;2023-07-29T06:50:53;25.83;;;13.80;;
72791;SDS011;60907;53.268;8.764;2023-07-29T06:53:20;29.20;;;14.95;;
72791;SDS011;60907;53.268;8.764;2023-07-29T06:55:45;25.65;;;13.00;;
72791;SDS011;60907;53.268;8.764;2023-07-29T06:58:11;26.45;;;13.75;;
72791;SDS011;60907;53.268;8.764;2023-07-29T07:00:36;25.83;;;13.85;;
72791;SDS011;60907;53.268;8.764;2023-07-29T07:03:02;25.08;;;14.27;;
72791;SDS011;60907;53.268;8.764;2023-07-29T07:05:27;26.02;;;14.02;;
72791;SDS011;60907;53.268;8.764;2023-07-29T07:07:53;27.03;;;14.07;;
72791;SDS011;60907;53.268;8.764;2023-07-29T07:10:18;23.98;;;14.05;;
72791;SDS011;60907;53.268;8.764;2023-07-29T07:12:44;19.73;;;12.00;;
72791;SDS011;60907;53.268;8.764;2023-07-29T07:15:09;19.27;;;10.85;;
72791;SDS011;60907;53.268;8.764;2023-07-29T07:17:35;19.05;;;11.10;;
72791;SDS011;60907;53.268;8.764;2023-07-29T07:20:00;19.33;;;10.10;;
72791;SDS011;60907;53.268;8.764;2023-07-29T07:22:25;15.73;;;9.43;;
72791;SDS011;60907;53.268;8.764;2023-07-29T07:24:51;16.17;;;10.07;;
72791;SDS011;60907;53.268;8.764;2023-07-29T07:27:16;17.70;;;9.23;;
72791;SDS011;60907;53.268;8.764;2023-07-29T07:29:42;15.97;;;9.10;;
72791;SDS011;60907;53.268;8.764;2023-07-29T07:32:07;14.73;;;8.43;;
72791;SDS011;60907;53.268;8.764;2023-07-29T07:34:32;11.45;;;7.13;;
72791;SDS011;60907;53.268;8.764;2023-07-29T07:36:59;14.57;;;8.15;;
72791;SDS011;60907;53.268;8.764;2023-07-29T07:39:25;12.98;;;7.57;;
72791;SDS011;60907;53.268;8.764;2023-07-29T07:41:51;11.45;;;7.10;;
72791;SDS011;60907;53.268;8.764;2023-07-29T07:44:16;11.17;;;5.73;;
72791;SDS011;60907;53.268;8.764;2023-07-29T07:46:43;7.53;;;5.38;;
72791;SDS011;60907;53.268;8.764;2023-07-29T07:49:08;8.82;;;5.38;;
72791;SDS011;60907;53.268;8.764;2023-07-29T07:51:34;6.93;;;4.20;;
72791;SDS011;60907;53.268;8.764;2023-07-29T07:53:59;5.57;;;3.25;;
72791;SDS011;60907;53.268;8.764;2023-07-29T07:56:25;4.17;;;2.80;;
72791;SDS011;60907;53.268;8.764;2023-07-29T07:58:50;3.72;;;2.25;;
72791;SDS011;60907;53.268;8.764;2023-07-29T08:01:15;5.30;;;2.63;;
72791;SDS011;60907;53.268;8.764;2023-07-29T08:03:41;5.13;;;3.00;;
72791;SDS011;60907;53.268;8.764;2023-07-29T08:06:06;3.60;;;2.43;;
72791;SDS011;60907;53.268;8.764;2023-07-29T08:08:31;3.30;;;2.23;;
72791;SDS011;60907;53.268;8.764;2023-07-29T08:10:57;4.13;;;2.20;;
72791;SDS011;60907;53.268;8.764;2023-07-29T08:13:23;4.07;;;2.45;;
72791;SDS011;60907;53.268;8.764;2023-07-29T08:15:49;4.63;;;2.38;;
72791;SDS011;60907;53.268;8.764;2023-07-29T08:18:15;2.90;;;2.00;;
72791;SDS011;60907;53.268;8.764;2023-07-29T08:20:41;3.60;;;2.10;;
72791;SDS011;60907;53.268;8.764;2023-07-29T08:23:20;4.50;;;2.00;;
72791;SDS011;60907;53.268;8.764;2023-07-29T08:25:50;2.50;;;1.92;;
72791;SDS011;60907;53.268;8.764;2023-07-29T08:28:21;3.13;;;1.80;;
72791;SDS011;60907;53.268;8.764;2023-07-29T08:30:46;3.00;;;1.85;;
72791;SDS011;60907;53.268;8.764;2023-07-29T08:33:12;2.40;;;1.80;;
72791;SDS011;60907;53.268;8.764;2023-07-29T08:35:37;2.58;;;1.70;;
72791;SDS011;60907;53.268;8.764;2023-07-29T08:38:02;2.83;;;1.43;;
72791;SDS011;60907;53.268;8.764;2023-07-29T08:40:29;3.10;;;1.75;;
72791;SDS011;60907;53.268;8.764;2023-07-29T08:42:56;3.60;;;1.70;;
72791;SDS011;60907;53.268;8.764;2023-07-29T08:45:23;3.50;;;1.90;;
72791;SDS011;60907;53.268;8.764;2023-07-29T08:47:49;2.33;;;1.48;;
72791;SDS011;60907;53.268;8.764;2023-07-29T08:50:15;2.08;;;1.58;;
72791;SDS011;60907;53.268;8.764;2023-07-29T08:52:40;2.60;;;2.22;;
72791;SDS011;60907;53.268;8.764;2023-07-29T08:55:07;2.53;;;2.00;;
72791;SDS011;60907;53.268;8.764;2023-07-29T08:57:33;2.35;;;1.80;;
72791;SDS011;60907;53.268;8.764;2023-07-29T08:59:58;2.72;;;1.70;;
72791;SDS011;60907;53.268;8.764;2023-07-29T09:02:24;2.17;;;1.63;;
72791;SDS011;60907;53.268;8.764;2023-07-29T09:04:49;2.67;;;1.60;;
72791;SDS011;60907;53.268;8.764;2023-07-29T09:07:14;2.03;;;1.50;;
72791;SDS011;60907;53.268;8.764;2023-07-29T09:09:40;2.20;;;1.60;;
72791;SDS011;60907;53.268;8.764;2023-07-29T09:12:05;2.63;;;1.27;;
72791;SDS011;60907;53.268;8.764;2023-07-29T09:14:32;3.95;;;2.33;;
72791;SDS011;60907;53.268;8.764;2023-07-29T09:16:57;3.60;;;1.53;;
72791;SDS011;60907;53.268;8.764;2023-07-29T09:19:25;2.88;;;1.52;;
72791;SDS011;60907;53.268;8.764;2023-07-29T09:21:51;2.47;;;1.67;;
72791;SDS011;60907;53.268;8.764;2023-07-29T09:24:16;2.28;;;1.58;;
72791;SDS011;60907;53.268;8.764;2023-07-29T09:26:48;2.78;;;1.60;;
72791;SDS011;60907;53.268;8.764;2023-07-29T09:29:21;3.42;;;1.63;;
72791;SDS011;60907;53.268;8.764;2023-07-29T09:31:47;3.47;;;1.33;;
72791;SDS011;60907;53.268;8.764;2023-07-29T09:34:13;4.93;;;1.70;;
72791;SDS011;60907;53.268;8.764;2023-07-29T09:36:40;3.17;;;1.70;;
72791;SDS011;60907;53.268;8.764;2023-07-29T09:39:10;3.42;;;1.80;;
72791;SDS011;60907;53.268;8.764;2023-07-29T09:41:36;4.45;;;2.05;;
72791;SDS011;60907;53.268;8.764;2023-07-29T09:44:02;2.80;;;1.80;;
72791;SDS011;60907;53.268;8.764;2023-07-29T09:46:33;3.60;;;2.03;;
72791;SDS011;60907;53.268;8.764;2023-07-29T09:48:59;3.70;;;2.03;;
72791;SDS011;60907;53.268;8.764;2023-07-29T09:51:27;4.53;;;2.00;;
72791;SDS011;60907;53.268;8.764;2023-07-29T09:53:52;4.03;;;1.73;;
72791;SDS011;60907;53.268;8.764;2023-07-29T09:56:18;5.03;;;1.60;;
72791;SDS011;60907;53.268;8.764;2023-07-29T09:58:50;2.13;;;1.88;;
72791;SDS011;60907;53.268;8.764;2023-07-29T10:01:15;3.10;;;2.20;;
72791;SDS011;60907;53.268;8.764;2023-07-29T10:03:41;2.85;;;1.83;;
72791;SDS011;60907;53.268;8.764;2023-07-29T10:06:07;3.90;;;2.10;;
72791;SDS011;60907;53.268;8.764;2023-07-29T10:08:33;4.47;;;2.28;;
72791;SDS011;60907;53.268;8.764;2023-07-29T10:11:03;2.97;;;2.13;;
72791;SDS011;60907;53.268;8.764;2023-07-29T10:13:31;3.65;;;2.33;;
72791;SDS011;60907;53.268;8.764;2023-07-29T10:15:57;2.97;;;2.10;;
72791;SDS011;60907;53.268;8.764;2023-07-29T10:18:22;4.83;;;1.63;;
72791;SDS011;60907;53.268;8.764;2023-07-29T10:20:51;2.97;;;2.30;;
72791;SDS011;60907;53.268;8.764;2023-07-29T10:23:19;3.15;;;2.25;;
72791;SDS011;60907;53.268;8.764;2023-07-29T10:25:47;2.90;;;2.33;;
72791;SDS011;60907;53.268;8.764;2023-07-29T10:28:15;2.95;;;2.00;;
72791;SDS011;60907;53.268;8.764;2023-07-29T10:30:43;2.67;;;1.95;;
72791;SDS011;60907;53.268;8.764;2023-07-29T10:33:09;4.80;;;1.80;;
72791;SDS011;60907;53.268;8.764;2023-07-29T10:35:35;2.15;;;1.50;;
72791;SDS011;60907;53.268;8.764;2023-07-29T10:38:02;2.08;;;1.52;;
72791;SDS011;60907;53.268;8.764;2023-07-29T10:41:13;2.38;;;1.90;;
72791;SDS011;60907;53.268;8.764;2023-07-29T10:43:28;1.85;;;1.75;;
72791;SDS011;60907;53.268;8.764;2023-07-29T10:46:17;2.72;;;1.50;;
72791;SDS011;60907;53.268;8.764;2023-07-29T10:48:54;2.05;;;1.70;;
72791;SDS011;60907;53.268;8.764;2023-07-29T10:53:56;2.17;;;1.65;;
72791;SDS011;60907;53.268;8.764;2023-07-29T10:56:29;1.95;;;1.55;;
72791;SDS011;60907;53.268;8.764;2023-07-29T10:58:56;2.03;;;1.73;;
72791;SDS011;60907;53.268;8.764;2023-07-29T11:01:27;2.40;;;1.85;;
72791;SDS011;60907;53.268;8.764;2023-07-29T11:20:19;2.33;;;1.85;;
72791;SDS011;60907;53.268;8.764;2023-07-29T11:25:23;2.85;;;1.80;;
72791;SDS011;60907;53.268;8.764;2023-07-29T11:27:51;3.22;;;1.65;;
72791;SDS011;60907;53.268;8.764;2023-07-29T11:30:18;3.95;;;1.80;;
72791;SDS011;60907;53.268;8.764;2023-07-29T11:32:44;2.33;;;1.52;;
72791;SDS011;60907;53.268;8.764;2023-07-29T11:37:40;2.25;;;1.60;;
72791;SDS011;60907;53.268;8.764;2023-07-29T11:40:07;2.33;;;2.03;;
72791;SDS011;60907;53.268;8.764;2023-07-29T11:42:37;2.58;;;1.70;;
72791;SDS011;60907;53.268;8.764;2023-07-29T11:45:03;1.63;;;1.52;;
72791;SDS011;60907;53.268;8.764;2023-07-29T11:47:31;2.30;;;1.92;;
72791;SDS011;60907;53.268;8.764;2023-07-29T11:50:01;2.95;;;1.80;;
72791;SDS011;60907;53.268;8.764;2023-07-29T11:52:27;2.00;;;1.77;;
72791;SDS011;60907;53.268;8.764;2023-07-29T11:54:52;3.22;;;1.80;;
72791;SDS011;60907;53.268;8.764;2023-07-29T11:57:18;2.63;;;1.60;;
72791;SDS011;60907;53.268;8.764;2023-07-29T11:59:44;4.45;;;1.85;;
72791;SDS011;60907;53.268;8.764;2023-07-29T12:02:17;1.95;;;1.80;;
72791;SDS011;60907;53.268;8.764;2023-07-29T12:04:43;2.35;;;1.10;;
72791;SDS011;60907;53.268;8.764;2023-07-29T12:07:09;2.63;;;2.08;;
72791;SDS011;60907;53.268;8.764;2023-07-29T12:09:35;3.35;;;1.45;;
72791;SDS011;60907;53.268;8.764;2023-07-29T12:12:02;3.22;;;2.08;;
72791;SDS011;60907;53.268;8.764;2023-07-29T12:14:28;1.85;;;1.50;;
72791;SDS011;60907;53.268;8.764;2023-07-29T12:16:54;2.40;;;1.65;;
72791;SDS011;60907;53.268;8.764;2023-07-29T12:19:19;2.73;;;1.73;;
72791;SDS011;60907;53.268;8.764;2023-07-29T12:21:47;2.08;;;1.42;;
72791;SDS011;60907;53.268;8.764;2023-07-29T12:24:13;2.15;;;1.67;;
72791;SDS011;60907;53.268;8.764;2023-07-29T12:26:39;2.33;;;1.67;;
72791;SDS011;60907;53.268;8.764;2023-07-29T12:29:12;2.28;;;1.83;;
72791;SDS011;60907;53.268;8.764;2023-07-29T12:31:38;1.83;;;1.73;;
72791;SDS011;60907;53.268;8.764;2023-07-29T12:34:03;2.50;;;1.95;;
72791;SDS011;60907;53.268;8.764;2023-07-29T12:36:42;1.73;;;1.48;;
72791;SDS011;60907;53.268;8.764;2023-07-29T12:39:24;3.03;;;1.70;;
72791;SDS011;60907;53.268;8.764;2023-07-29T12:41:53;2.00;;;1.45;;
72791;SDS011;60907;53.268;8.764;2023-07-29T12:44:28;3.10;;;1.63;;
72791;SDS011;60907;53.268;8.764;2023-07-29T12:46:55;3.20;;;1.65;;
72791;SDS011;60907;53.268;8.764;2023-07-29T12:49:21;2.45;;;1.58;;
72791;SDS011;60907;53.268;8.764;2023-07-29T12:51:47;3.15;;;1.70;;
72791;SDS011;60907;53.268;8.764;2023-07-29T12:54:13;2.10;;;1.90;;
72791;SDS011;60907;53.268;8.764;2023-07-29T12:56:38;3.75;;;2.03;;
72791;SDS011;60907;53.268;8.764;2023-07-29T12:59:04;1.90;;;1.70;;
72791;SDS011;60907;53.268;8.764;2023-07-29T13:01:31;2.45;;;1.60;;
72791;SDS011;60907;53.268;8.764;2023-07-29T13:03:56;3.85;;;1.95;;
72791;SDS011;60907;53.268;8.764;2023-07-29T13:06:22;1.77;;;1.25;;
72791;SDS011;60907;53.268;8.764;2023-07-29T13:08:47;3.38;;;2.03;;
72791;SDS011;60907;53.268;8.764;2023-07-29T13:11:14;2.90;;;1.70;;
72791;SDS011;60907;53.268;8.764;2023-07-29T13:13:40;1.67;;;1.58;;
72791;SDS011;60907;53.268;8.764;2023-07-29T13:16:05;2.47;;;1.83;;
72791;SDS011;60907;53.268;8.764;2023-07-29T13:18:31;1.50;;;1.40;;
72791;SDS011;60907;53.268;8.764;2023-07-29T13:20:57;3.00;;;1.52;;
72791;SDS011;60907;53.268;8.764;2023-07-29T13:23:23;4.93;;;2.88;;
72791;SDS011;60907;53.268;8.764;2023-07-29T13:25:48;4.32;;;1.73;;
72791;SDS011;60907;53.268;8.764;2023-07-29T13:28:14;4.67;;;2.17;;
72791;SDS011;60907;53.268;8.764;2023-07-29T13:30:39;3.97;;;2.00;;
72791;SDS011;60907;53.268;8.764;2023-07-29T13:33:08;2.13;;;1.23;;
72791;SDS011;60907;53.268;8.764;2023-07-29T13:35:34;3.22;;;1.52;;
72791;SDS011;60907;53.268;8.764;2023-07-29T13:38:00;2.58;;;1.67;;
72791;SDS011;60907;53.268;8.764;2023-07-29T13:40:25;2.97;;;1.58;;
72791;SDS011;60907;53.268;8.764;2023-07-29T13:42:51;2.47;;;1.47;;
72791;SDS011;60907;53.268;8.764;2023-07-29T13:45:17;2.50;;;1.65;;
72791;SDS011;60907;53.268;8.764;2023-07-29T13:47:42;3.78;;;1.67;;
72791;SDS011;60907;53.268;8.764;2023-07-29T13:50:08;2.37;;;1.40;;
72791;SDS011;60907;53.268;8.764;2023-07-29T13:52:35;2.08;;;1.48;;
72791;SDS011;60907;53.268;8.764;2023-07-29T13:55:01;3.58;;;1.30;;
72791;SDS011;60907;53.268;8.764;2023-07-29T13:57:27;1.75;;;1.52;;
72791;SDS011;60907;53.268;8.764;2023-07-29T13:59:52;1.97;;;1.80;;
72791;SDS011;60907;53.268;8.764;2023-07-29T14:02:18;2.87;;;1.57;;
72791;SDS011;60907;53.268;8.764;2023-07-29T14:04:43;2.58;;;1.70;;
72791;SDS011;60907;53.268;8.764;2023-07-29T14:07:09;2.28;;;1.48;;
72791;SDS011;60907;53.268;8.764;2023-07-29T14:09:34;1.40;;;1.30;;
72791;SDS011;60907;53.268;8.764;2023-07-29T14:11:59;2.63;;;1.45;;
72791;SDS011;60907;53.268;8.764;2023-07-29T14:14:25;1.97;;;1.77;;
72791;SDS011;60907;53.268;8.764;2023-07-29T14:16:50;2.13;;;1.20;;
72791;SDS011;60907;53.268;8.764;2023-07-29T14:19:16;2.63;;;1.67;;
72791;SDS011;60907;53.268;8.764;2023-07-29T14:21:41;1.90;;;1.40;;
72791;SDS011;60907;53.268;8.764;2023-07-29T14:24:06;3.73;;;1.37;;
72791;SDS011;60907;53.268;8.764;2023-07-29T14:26:32;1.53;;;1.13;;
72791;SDS011;60907;53.268;8.764;2023-07-29T14:28:57;1.65;;;0.63;;
72791;SDS011;60907;53.268;8.764;2023-07-29T14:31:23;2.55;;;0.98;;
72791;SDS011;60907;53.268;8.764;2023-07-29T14:33:48;1.70;;;1.00;;
72791;SDS011;60907;53.268;8.764;2023-07-29T14:36:16;4.30;;;1.20;;
72791;SDS011;60907;53.268;8.764;2023-07-29T14:38:42;2.13;;;1.20;;
72791;SDS011;60907;53.268;8.764;2023-07-29T14:41:07;1.52;;;1.00;;
72791;SDS011;60907;53.268;8.764;2023-07-29T14:43:33;2.65;;;1.30;;
72791;SDS011;60907;53.268;8.764;2023-07-29T14:45:59;2.38;;;1.10;;
72791;SDS011;60907;53.268;8.764;2023-07-29T14:48:24;2.20;;;1.23;;
72791;SDS011;60907;53.268;8.764;2023-07-29T14:50:50;3.08;;;1.50;;
72791;SDS011;60907;53.268;8.764;2023-07-29T14:53:15;3.38;;;1.23;;
72791;SDS011;60907;53.268;8.764;2023-07-29T14:55:40;3.67;;;1.43;;
72791;SDS011;60907;53.268;8.764;2023-07-29T14:58:06;1.83;;;1.13;;
72791;SDS011;60907;53.268;8.764;2023-07-29T15:00:31;4.20;;;1.30;;